createdAt,value
2023-05-24T00:01:25.918Z,99.90
2023-05-24T00:04:30.584Z,99.90
2023-05-24T00:07:32.806Z,99.90
2023-05-24T00:10:38.546Z,99.90
2023-05-24T00:13:41.032Z,99.90
2023-05-24T00:16:43.255Z,99.90
2023-05-24T00:19:45.700Z,99.60
2023-05-24T00:22:47.844Z,99.70
2023-05-24T00:25:49.902Z,99.50
2023-05-24T00:28:53.320Z,99.10
2023-05-24T00:31:55.829Z,99.10
2023-05-24T00:34:58.129Z,98.20
2023-05-24T00:38:00.239Z,98.30
2023-05-24T00:41:02.430Z,98.00
2023-05-24T00:44:04.514Z,98.20
2023-05-24T00:47:06.868Z,98.50
2023-05-24T00:50:13.249Z,98.60
2023-05-24T00:53:15.973Z,98.70
2023-05-24T00:56:18.166Z,98.90
2023-05-24T00:59:20.481Z,99.20
2023-05-24T01:02:25.536Z,99.30
2023-05-24T01:05:27.788Z,99.60
2023-05-24T01:08:39.447Z,99.60
2023-05-24T01:11:50.631Z,99.90
2023-05-24T01:15:05.075Z,99.80
2023-05-24T01:18:42.015Z,99.90
2023-05-24T01:22:02.001Z,99.90
2023-05-24T01:25:18.242Z,99.90
2023-05-24T01:28:21.538Z,99.90
2023-05-24T01:31:24.951Z,99.90
2023-05-24T01:34:27.331Z,99.90
2023-05-24T01:37:29.456Z,99.90
2023-05-24T01:40:31.635Z,99.90
2023-05-24T01:43:48.958Z,99.90
2023-05-24T01:47:02.169Z,99.90
2023-05-24T01:50:29.207Z,99.90
2023-05-24T01:53:35.048Z,99.90
2023-05-24T01:56:38.232Z,99.90
2023-05-24T01:59:44.380Z,99.90
2023-05-24T02:02:46.933Z,99.90
2023-05-24T02:05:49.362Z,99.90
2023-05-24T02:08:53.415Z,99.90
2023-05-24T02:11:55.646Z,99.90
2023-05-24T02:14:58.186Z,99.90
2023-05-24T02:18:01.640Z,99.90
2023-05-24T02:21:03.834Z,99.90
2023-05-24T02:24:07.873Z,99.90
2023-05-24T02:27:10.751Z,99.90
2023-05-24T02:30:13.768Z,99.90
2023-05-24T02:33:16.098Z,99.90
2023-05-24T02:36:18.324Z,99.90
2023-05-24T02:39:20.763Z,99.90
2023-05-24T02:42:23.123Z,99.90
2023-05-24T02:45:25.258Z,99.90
2023-05-24T02:48:27.567Z,99.90
2023-05-24T02:51:29.841Z,99.90
2023-05-24T02:54:31.994Z,99.90
2023-05-24T02:57:34.461Z,99.90
2023-05-24T03:00:37.295Z,99.90
2023-05-24T03:03:40.251Z,99.90
2023-05-24T03:06:42.717Z,99.90
2023-05-24T03:09:44.900Z,99.90
2023-05-24T03:12:47.030Z,99.90
2023-05-24T03:15:49.424Z,99.90
2023-05-24T03:18:52.053Z,99.90
2023-05-24T03:21:54.226Z,99.90
2023-05-24T03:24:56.426Z,99.90
2023-05-24T03:27:58.604Z,99.90
2023-05-24T03:31:01.138Z,99.90
2023-05-24T03:34:03.370Z,99.90
2023-05-24T03:37:05.702Z,99.90
2023-05-24T03:40:08.419Z,99.90
2023-05-24T03:43:11.024Z,99.90
2023-05-24T03:46:13.206Z,99.90
2023-05-24T03:49:15.473Z,99.90
2023-05-24T03:52:17.792Z,99.90
2023-05-24T03:55:20.074Z,99.90
2023-05-24T03:58:22.647Z,99.90
2023-05-24T04:01:33.478Z,99.90
2023-05-24T04:04:39.603Z,99.90
2023-05-24T04:07:42.480Z,99.90
2023-05-24T04:10:44.966Z,99.90
2023-05-24T04:13:47.239Z,99.90
2023-05-24T04:17:26.243Z,99.90
2023-05-24T04:20:32.244Z,99.90
2023-05-24T04:23:34.841Z,99.90
2023-05-24T04:26:38.211Z,99.90
2023-05-24T04:29:42.307Z,99.90
2023-05-24T04:32:44.785Z,99.90
2023-05-24T04:35:47.910Z,99.90
2023-05-24T04:38:50.543Z,99.90
2023-05-24T04:41:53.554Z,99.90
2023-05-24T04:44:55.840Z,99.90
2023-05-24T04:47:57.976Z,99.90
2023-05-24T04:51:01.236Z,99.90
2023-05-24T04:54:08.866Z,99.90
2023-05-24T04:57:11.295Z,99.90
2023-05-24T05:00:14.018Z,99.90
2023-05-24T05:03:17.187Z,99.90
2023-05-24T05:06:19.498Z,99.90
2023-05-24T05:09:22.735Z,99.90
2023-05-24T05:12:24.938Z,99.90
2023-05-24T05:15:28.009Z,99.90
2023-05-24T05:18:30.178Z,99.90
2023-05-24T05:21:36.757Z,99.90
2023-05-24T05:24:38.955Z,99.90
2023-05-24T05:27:41.177Z,99.90
2023-05-24T05:30:43.556Z,99.90
2023-05-24T05:33:46.904Z,99.90
2023-05-24T05:36:50.147Z,99.90
2023-05-24T05:39:52.332Z,99.90
2023-05-24T05:42:54.562Z,99.90
2023-05-24T05:45:56.796Z,99.90
2023-05-24T05:48:59.078Z,99.90
2023-05-24T05:52:01.201Z,99.90
2023-05-24T05:55:04.932Z,99.90
2023-05-24T05:58:07.060Z,99.90
2023-05-24T06:01:09.745Z,99.90
2023-05-24T06:04:12.123Z,99.90
2023-05-24T06:07:14.515Z,99.90
2023-05-24T06:10:16.810Z,99.90
2023-05-24T06:13:19.032Z,99.90
2023-05-24T06:16:21.503Z,99.90
2023-05-24T06:19:24.090Z,99.90
2023-05-24T06:22:28.235Z,99.90
2023-05-24T06:25:31.115Z,99.60
2023-05-24T06:28:33.171Z,99.40
2023-05-24T06:31:35.732Z,98.30
2023-05-24T06:34:38.165Z,98.30
2023-05-24T06:37:40.952Z,97.90
2023-05-24T06:40:43.217Z,98.00
2023-05-24T06:43:46.408Z,97.70
2023-05-24T06:46:48.651Z,97.30
2023-05-24T06:49:51.498Z,96.90
2023-05-24T06:52:53.587Z,95.90
2023-05-24T06:55:57.497Z,96.30
2023-05-24T06:59:00.190Z,96.30
2023-05-24T07:02:03.881Z,95.10
2023-05-24T07:05:06.801Z,92.80
2023-05-24T07:08:09.789Z,91.70
2023-05-24T07:11:12.316Z,90.20
2023-05-24T07:14:14.545Z,86.40
2023-05-24T07:17:16.967Z,86.00
2023-05-24T07:20:19.393Z,85.10
2023-05-24T07:23:21.470Z,81.90
2023-05-24T07:26:23.892Z,79.60
2023-05-24T07:29:26.275Z,81.10
2023-05-24T07:32:29.651Z,78.50
2023-05-24T07:35:32.978Z,78.30
2023-05-24T07:38:36.275Z,76.70
2023-05-24T07:41:38.564Z,76.00
2023-05-24T07:44:40.863Z,75.90
2023-05-24T07:47:43.215Z,75.70
2023-05-24T07:50:48.909Z,73.60
2023-05-24T07:53:51.154Z,74.20
2023-05-24T07:56:53.478Z,72.30
2023-05-24T07:59:55.711Z,71.50
2023-05-24T08:02:58.090Z,72.10
2023-05-24T08:06:00.449Z,71.30
2023-05-24T08:09:04.614Z,70.60
2023-05-24T08:12:07.361Z,70.00
2023-05-24T08:15:10.065Z,69.70
2023-05-24T08:18:12.227Z,69.60
2023-05-24T08:21:14.408Z,68.10
2023-05-24T08:24:16.648Z,68.00
2023-05-24T08:27:19.264Z,66.90
2023-05-24T08:30:21.631Z,67.20
2023-05-24T08:33:23.896Z,65.90
2023-05-24T08:36:26.199Z,66.60
2023-05-24T08:39:28.499Z,65.30
2023-05-24T08:42:32.176Z,65.90
2023-05-24T08:45:37.050Z,67.10
2023-05-24T08:48:47.206Z,64.30
2023-05-24T08:51:52.219Z,66.00
2023-05-24T08:54:55.068Z,66.00
2023-05-24T08:57:57.883Z,65.00
2023-05-24T09:01:02.685Z,65.40
2023-05-24T09:04:06.515Z,66.10
2023-05-24T09:07:09.483Z,66.30
2023-05-24T09:10:12.056Z,64.60
2023-05-24T09:13:16.042Z,65.60
2023-05-24T09:16:18.260Z,63.80
2023-05-24T09:19:21.347Z,62.60
2023-05-24T09:22:26.318Z,62.10
2023-05-24T09:25:30.032Z,60.90
2023-05-24T09:28:34.153Z,62.50
2023-05-24T09:31:39.593Z,62.00
2023-05-24T09:34:43.094Z,60.70
2023-05-24T09:37:47.345Z,60.40
2023-05-24T09:41:01.863Z,61.40
2023-05-24T09:44:04.531Z,59.40
2023-05-24T09:47:07.015Z,60.60
2023-05-24T09:50:17.638Z,58.10
2023-05-24T09:53:23.459Z,59.30
2023-05-24T09:56:25.795Z,60.00
2023-05-24T09:59:28.555Z,59.40
2023-05-24T10:02:41.276Z,57.60
2023-05-24T10:05:50.284Z,57.70
2023-05-24T10:08:54.453Z,58.10
2023-05-24T10:11:56.818Z,58.00
2023-05-24T10:15:00.147Z,57.70
2023-05-24T10:18:09.912Z,60.30
2023-05-24T10:21:14.432Z,61.90
2023-05-24T10:24:19.930Z,61.10
2023-05-24T10:27:25.124Z,60.80
2023-05-24T10:30:33.620Z,60.30
2023-05-24T10:33:40.528Z,60.30
2023-05-24T10:36:44.374Z,59.60
2023-05-24T10:39:46.731Z,59.70
2023-05-24T10:42:49.482Z,57.60
2023-05-24T10:45:51.924Z,56.70
2023-05-24T10:49:01.502Z,58.80
2023-05-24T10:52:08.937Z,57.80
2023-05-24T10:55:12.853Z,59.00
2023-05-24T10:58:15.903Z,59.10
2023-05-24T11:01:31.154Z,58.90
2023-05-24T11:04:36.788Z,59.90
2023-05-24T11:07:45.286Z,58.10
2023-05-24T11:10:47.729Z,55.60
2023-05-24T11:13:58.115Z,58.00
2023-05-24T11:17:00.839Z,56.50
2023-05-24T11:20:05.587Z,57.70
2023-05-24T11:23:11.798Z,56.70
2023-05-24T11:26:15.276Z,54.10
2023-05-24T11:29:18.253Z,56.60
2023-05-24T11:32:23.495Z,57.20
2023-05-24T11:35:30.075Z,58.20
2023-05-24T11:38:34.993Z,60.90
2023-05-24T11:41:40.590Z,62.60
2023-05-24T11:44:42.805Z,62.40
2023-05-24T11:47:45.190Z,62.00
2023-05-24T11:50:50.353Z,63.70
2023-05-24T11:53:54.717Z,63.10
2023-05-24T11:56:57.510Z,63.00
2023-05-24T11:59:59.691Z,65.30
2023-05-24T12:03:07.433Z,63.20
2023-05-24T12:06:10.706Z,63.70
2023-05-24T12:09:16.909Z,65.10
2023-05-24T12:12:24.320Z,66.60
2023-05-24T12:15:29.349Z,67.00
2023-05-24T12:18:31.453Z,69.70
2023-05-24T12:21:35.422Z,70.50
2023-05-24T12:24:38.293Z,71.00
2023-05-24T12:27:47.880Z,71.70
2023-05-24T12:30:50.317Z,71.80
2023-05-24T12:33:54.312Z,70.70
2023-05-24T12:36:57.094Z,71.90
2023-05-24T12:40:01.597Z,73.60
2023-05-24T12:43:05.522Z,75.10
2023-05-24T12:46:07.961Z,75.00
2023-05-24T12:49:11.800Z,72.70
2023-05-24T12:52:14.816Z,71.10
2023-05-24T12:55:17.314Z,72.10
2023-05-24T12:58:20.006Z,73.80
2023-05-24T13:01:22.191Z,74.80
2023-05-24T13:04:27.771Z,73.10
2023-05-24T13:07:31.215Z,73.40
2023-05-24T13:10:33.443Z,72.50
2023-05-24T13:13:35.828Z,72.30
2023-05-24T13:16:37.977Z,71.40
2023-05-24T13:19:40.073Z,72.20
2023-05-24T13:22:42.392Z,72.70
2023-05-24T13:25:44.507Z,72.70
2023-05-24T13:29:15.091Z,72.40
2023-05-24T13:32:08.709Z,70.60
2023-05-24T13:35:11.556Z,70.90
2023-05-24T13:38:13.899Z,70.70
2023-05-24T13:41:16.141Z,70.50
2023-05-24T13:44:18.577Z,70.60
2023-05-24T13:47:31.193Z,70.30
2023-05-24T13:50:41.359Z,69.90
2023-05-24T13:53:43.874Z,69.80
2023-05-24T13:56:49.070Z,69.30
2023-05-24T13:59:51.373Z,69.40
2023-05-24T14:02:53.920Z,69.70
2023-05-24T14:05:56.420Z,69.80
2023-05-24T14:08:59.371Z,68.80
2023-05-24T14:12:03.425Z,68.80
2023-05-24T14:15:06.709Z,69.00
2023-05-24T14:18:09.215Z,69.20
2023-05-24T14:21:11.744Z,67.00
2023-05-24T14:24:13.860Z,68.20
2023-05-24T14:27:15.936Z,70.10
2023-05-24T14:30:18.035Z,69.50
2023-05-24T14:33:20.160Z,70.10
2023-05-24T14:36:22.471Z,69.10
2023-05-24T14:39:25.067Z,68.40
2023-05-24T14:42:27.200Z,68.00
2023-05-24T14:45:29.238Z,66.60
2023-05-24T14:48:31.400Z,68.10
2023-05-24T14:51:33.611Z,68.10
2023-05-24T14:54:36.904Z,69.00
2023-05-24T14:57:39.171Z,70.80
2023-05-24T15:00:42.778Z,71.20
2023-05-24T15:03:45.219Z,70.90
2023-05-24T15:06:47.475Z,71.00
2023-05-24T15:09:49.569Z,70.10
2023-05-24T15:12:52.202Z,69.40
2023-05-24T15:15:56.680Z,69.00
2023-05-24T15:18:59.573Z,67.90
2023-05-24T15:22:01.698Z,68.30
2023-05-24T15:25:04.092Z,67.90
2023-05-24T15:28:06.296Z,67.50
2023-05-24T15:31:08.523Z,67.60
2023-05-24T15:34:10.988Z,67.20
2023-05-24T15:37:13.332Z,67.70
2023-05-24T15:40:16.262Z,67.30
2023-05-24T15:43:19.157Z,68.30
2023-05-24T15:46:22.046Z,69.00
2023-05-24T15:49:24.262Z,70.30
2023-05-24T15:52:26.591Z,71.80
2023-05-24T15:55:28.770Z,70.80
2023-05-24T15:58:31.090Z,69.90
2023-05-24T16:01:33.204Z,69.00
2023-05-24T16:04:35.375Z,69.00
2023-05-24T16:07:37.534Z,68.70
2023-05-24T16:10:39.692Z,68.90
2023-05-24T16:13:41.912Z,69.20
2023-05-24T16:16:45.468Z,68.90
2023-05-24T16:19:49.623Z,68.90
2023-05-24T16:22:51.915Z,68.60
2023-05-24T16:25:54.140Z,69.00
2023-05-24T16:28:56.418Z,68.70
2023-05-24T16:31:58.754Z,69.30
2023-05-24T16:35:00.956Z,69.20
2023-05-24T16:38:03.344Z,69.70
2023-05-24T16:41:06.215Z,70.40
2023-05-24T16:44:08.465Z,70.50
2023-05-24T16:47:10.731Z,70.80
2023-05-24T16:50:16.148Z,70.60
2023-05-24T16:53:20.490Z,71.00
2023-05-24T16:56:23.400Z,70.70
2023-05-24T16:59:25.498Z,71.40
2023-05-24T17:02:27.708Z,71.50
2023-05-24T17:05:29.811Z,72.30
2023-05-24T17:08:37.194Z,71.70
2023-05-24T17:11:39.280Z,71.90
2023-05-24T17:14:41.558Z,71.90
2023-05-24T17:17:43.682Z,71.50
2023-05-24T17:20:46.225Z,72.20
2023-05-24T17:23:48.704Z,72.10
2023-05-24T17:26:50.890Z,72.40
2023-05-24T17:29:53.038Z,72.50
2023-05-24T17:32:55.273Z,72.40
2023-05-24T17:35:57.748Z,71.80
2023-05-24T17:38:59.928Z,71.80
2023-05-24T17:42:03.032Z,72.20
2023-05-24T17:45:06.757Z,72.90
2023-05-24T17:48:10.322Z,73.50
2023-05-24T17:51:12.935Z,74.20
2023-05-24T17:54:15.048Z,74.30
2023-05-24T17:57:17.237Z,74.30
2023-05-24T18:00:19.732Z,73.30
2023-05-24T18:03:21.825Z,73.10
2023-05-24T18:06:24.191Z,72.80
2023-05-24T18:09:30.495Z,72.70
2023-05-24T18:12:32.654Z,72.40
2023-05-24T18:15:35.210Z,71.70
2023-05-24T18:18:41.023Z,71.90
2023-05-24T18:21:43.074Z,72.80
2023-05-24T18:24:45.389Z,74.70
2023-05-24T18:27:47.844Z,75.30
2023-05-24T18:30:52.776Z,76.30
2023-05-24T18:33:55.248Z,76.80
2023-05-24T18:36:57.538Z,77.40
2023-05-24T18:40:00.493Z,77.30
2023-05-24T18:43:02.939Z,77.80
2023-05-24T18:46:05.200Z,78.10
2023-05-24T18:49:11.012Z,78.20
2023-05-24T18:52:13.284Z,77.70
2023-05-24T18:55:15.997Z,77.80
2023-05-24T18:58:18.163Z,77.80
2023-05-24T19:01:20.331Z,77.80
2023-05-24T19:04:22.876Z,77.30
2023-05-24T19:07:26.046Z,77.20
2023-05-24T19:10:28.106Z,77.00
2023-05-24T19:13:31.691Z,77.10
2023-05-24T19:16:33.961Z,76.60
2023-05-24T19:19:36.244Z,76.50
2023-05-24T19:22:38.311Z,76.80
2023-05-24T19:25:42.213Z,77.00
2023-05-24T19:28:50.474Z,77.60
2023-05-24T19:31:52.724Z,77.60
2023-05-24T19:34:56.454Z,77.90
2023-05-24T19:38:01.814Z,78.30
2023-05-24T19:41:04.211Z,78.70
2023-05-24T19:44:06.329Z,78.90
2023-05-24T19:47:08.439Z,78.90
2023-05-24T19:50:11.860Z,79.00
2023-05-24T19:53:15.655Z,79.00
2023-05-24T19:56:17.842Z,79.00
2023-05-24T19:59:20.031Z,79.20
2023-05-24T20:02:22.544Z,79.20
2023-05-24T20:05:24.824Z,79.40
2023-05-24T20:08:30.547Z,79.10
2023-05-24T20:11:32.758Z,79.30
2023-05-24T20:14:34.967Z,79.20
2023-05-24T20:17:37.248Z,79.10
2023-05-24T20:20:39.403Z,79.10
2023-05-24T20:23:41.965Z,79.20
2023-05-24T20:26:44.256Z,79.50
2023-05-24T20:29:46.779Z,79.40
2023-05-24T20:32:49.252Z,79.50
2023-05-24T20:35:53.160Z,79.40
2023-05-24T20:38:55.338Z,79.70
2023-05-24T20:41:58.572Z,79.80
2023-05-24T20:45:01.030Z,79.70
2023-05-24T20:48:03.315Z,79.90
2023-05-24T20:51:07.292Z,79.90
2023-05-24T20:54:12.055Z,79.50
2023-05-24T20:57:14.306Z,79.60
2023-05-24T21:00:16.551Z,79.70
2023-05-24T21:03:19.000Z,80.20
2023-05-24T21:06:21.908Z,80.40
2023-05-24T21:09:24.173Z,80.90
2023-05-24T21:12:26.408Z,81.30
2023-05-24T21:15:28.553Z,81.50
2023-05-24T21:18:33.445Z,82.00
2023-05-24T21:21:36.208Z,81.80
2023-05-24T21:24:38.418Z,81.90
2023-05-24T21:27:40.593Z,81.70
2023-05-24T21:30:43.048Z,81.60
2023-05-24T21:33:45.269Z,81.50
2023-05-24T21:36:47.359Z,81.30
2023-05-24T21:39:50.010Z,81.20
2023-05-24T21:42:52.203Z,81.30
2023-05-24T21:45:54.255Z,81.10
2023-05-24T21:48:57.461Z,80.80
2023-05-24T21:51:59.631Z,80.90
2023-05-24T21:55:01.783Z,80.80
2023-05-24T21:58:03.951Z,80.80
2023-05-24T22:01:06.206Z,80.60
2023-05-24T22:04:09.307Z,80.30
2023-05-24T22:07:11.729Z,80.10
2023-05-24T22:10:13.917Z,80.30
2023-05-24T22:13:16.253Z,80.20
2023-05-24T22:16:18.675Z,80.30
2023-05-24T22:19:38.889Z,80.30
2023-05-24T22:22:48.727Z,79.80
2023-05-24T22:25:51.015Z,80.00
2023-05-24T22:28:54.998Z,79.80
2023-05-24T22:32:00.978Z,79.80
2023-05-24T22:35:05.814Z,79.80
2023-05-24T22:38:08.277Z,80.60
2023-05-24T22:41:10.344Z,79.70
2023-05-24T22:44:13.850Z,79.80
2023-05-24T22:47:17.075Z,79.50
2023-05-24T22:50:19.302Z,79.60
2023-05-24T22:53:21.429Z,79.70
2023-05-24T22:56:23.778Z,79.70
2023-05-24T22:59:26.102Z,80.10
2023-05-24T23:02:29.358Z,79.60
2023-05-24T23:05:31.946Z,79.50
2023-05-24T23:08:34.367Z,79.60
2023-05-24T23:11:36.635Z,80.00
2023-05-24T23:14:41.724Z,79.80
2023-05-24T23:17:44.504Z,79.90
2023-05-24T23:20:46.872Z,80.30
2023-05-24T23:23:49.442Z,80.20
2023-05-24T23:26:51.532Z,80.30
2023-05-24T23:29:53.636Z,80.60
2023-05-24T23:32:55.816Z,81.10
2023-05-24T23:35:58.019Z,81.00
2023-05-24T23:39:00.207Z,80.90
2023-05-24T23:42:02.670Z,80.80
2023-05-24T23:45:05.255Z,80.90
2023-05-24T23:48:10.944Z,81.10
2023-05-24T23:51:13.336Z,81.40
2023-05-24T23:54:15.917Z,81.20
2023-05-24T23:57:20.195Z,81.90
